Time;durP1;ratioP1;P1;durP2;ratioP2;P2;SDS_P1;SDS_P2;PMS_P1;PMS_P2;Temp;Humidity;BMP_temperature;BMP_pressure;BME280_temperature;BME280_humidity;BME280_pressure;Samples;Min_cycle;Max_cycle;Signal;HPM_P1;HPM_P2
2022/01/22 00:01:08;;;;;;;5.15;0.90;;;22.70;99.90;;;;;;5038280;28;20186;-82
2022/01/22 00:03:39;;;;;;;3.53;0.75;;;22.70;99.90;;;;;;5036289;28;20182;-82
2022/01/22 00:06:12;;;;;;;4.55;0.73;;;22.70;99.90;;;;;;5034971;28;20596;-83
2022/01/22 00:08:43;;;;;;;5.72;0.77;;;22.80;99.90;;;;;;5044409;28;20190;-81
2022/01/22 00:11:13;;;;;;;4.22;1.25;;;22.90;99.90;;;;;;5035118;28;20248;-81
2022/01/22 00:16:30;;;;;;;4.88;0.80;;;23.50;99.90;;;;;;5037033;28;20801;-84
2022/01/22 00:19:01;;;;;;;4.88;0.95;;;23.40;99.90;;;;;;5036715;28;20189;-83
2022/01/22 00:21:34;;;;;;;3.08;0.88;;;23.40;99.90;;;;;;5035135;28;20183;-83
2022/01/22 00:24:06;;;;;;;5.82;0.70;;;23.40;99.90;;;;;;5035926;28;20226;-82
2022/01/22 00:26:37;;;;;;;4.20;0.63;;;23.20;99.90;;;;;;5037093;28;20638;-82
2022/01/22 00:29:08;;;;;;;3.42;0.57;;;23.20;99.90;;;;;;5031005;28;20662;-82
2022/01/22 00:31:39;;;;;;;3.75;0.80;;;22.90;99.90;;;;;;5034536;28;20201;-82
2022/01/22 00:34:11;;;;;;;2.75;0.70;;;22.80;99.90;;;;;;5034733;28;20222;-81
2022/01/22 00:36:43;;;;;;;4.90;0.98;;;22.50;99.90;;;;;;5034650;28;20218;-82
2022/01/22 00:39:14;;;;;;;10.27;0.93;;;22.40;99.90;;;;;;5034413;28;20646;-81
2022/01/22 00:41:45;;;;;;;3.63;0.77;;;22.30;99.90;;;;;;5034039;28;20237;-82
2022/01/22 00:44:15;;;;;;;3.42;1.00;;;22.30;99.90;;;;;;5033704;28;20732;-81
2022/01/22 00:46:46;;;;;;;2.00;0.68;;;22.30;99.90;;;;;;5034165;28;20333;-82
2022/01/22 00:49:16;;;;;;;4.13;0.80;;;22.40;99.90;;;;;;5034052;28;20701;-81
2022/01/22 00:51:49;;;;;;;5.10;0.85;;;22.50;99.90;;;;;;5034509;28;20638;-81
2022/01/22 00:54:19;;;;;;;6.97;1.38;;;22.80;99.90;;;;;;5034375;28;20187;-82
2022/01/22 00:56:50;;;;;;;6.00;1.02;;;23.00;99.90;;;;;;5034190;28;20210;-81
2022/01/22 00:59:21;;;;;;;5.60;3.05;;;23.20;99.90;;;;;;5026346;28;20198;-81
2022/01/22 01:01:51;;;;;;;53.00;34.42;;;23.20;99.90;;;;;;5034398;28;20248;-82
2022/01/22 01:04:22;;;;;;;8.30;4.13;;;23.20;99.90;;;;;;5026360;28;20193;-83
2022/01/22 01:06:55;;;;;;;6.95;2.65;;;23.20;99.90;;;;;;5034204;28;20191;-81
2022/01/22 01:09:25;;;;;;;7.95;4.68;;;23.20;99.90;;;;;;5032961;28;20198;-80
2022/01/22 01:12:03;;;;;;;3.40;0.95;;;23.20;99.90;;;;;;5034006;28;20654;-80
2022/01/22 01:14:39;;;;;;;5.03;1.00;;;23.10;99.90;;;;;;5027313;28;20182;-80
2022/01/22 01:17:34;;;;;;;5.50;1.38;;;23.10;99.90;;;;;;5033744;28;20182;-81
2022/01/22 01:34:02;;;;;;;4.28;0.65;;;24.40;99.90;;;;;;5036291;28;20191;-82
2022/01/22 01:36:33;;;;;;;4.03;1.02;;;24.50;99.90;;;;;;5027352;28;20207;-82
2022/01/22 01:39:09;;;;;;;3.75;0.75;;;24.60;99.90;;;;;;5040526;28;20205;-80
2022/01/22 01:41:48;;;;;;;4.97;0.88;;;24.60;99.90;;;;;;5037748;28;20226;-81
2022/01/22 01:44:19;;;;;;;1.70;0.60;;;24.60;99.90;;;;;;5032894;28;20553;-80
2022/01/22 01:46:54;;;;;;;1.85;0.60;;;24.70;99.90;;;;;;5034724;28;20191;-79
2022/01/22 01:49:24;;;;;;;3.38;0.60;;;24.80;99.90;;;;;;5031027;28;20229;-80
2022/01/22 01:52:01;;;;;;;3.50;0.73;;;24.80;99.90;;;;;;5034957;28;20186;-81
2022/01/22 01:54:44;;;;;;;5.70;0.75;;;24.90;99.90;;;;;;5038124;28;20277;-81
2022/01/22 01:57:33;;;;;;;3.28;0.52;;;24.80;99.90;;;;;;5033263;28;20232;-81
2022/01/22 02:00:07;;;;;;;3.97;0.70;;;24.90;99.90;;;;;;5032267;28;20286;-81
2022/01/22 02:02:38;;;;;;;3.35;0.88;;;25.00;99.90;;;;;;5032902;28;20227;-80
2022/01/22 02:05:11;;;;;;;4.45;0.80;;;25.10;99.90;;;;;;5033951;28;20256;-79
2022/01/22 02:07:44;;;;;;;5.70;1.00;;;25.10;99.90;;;;;;5030427;28;20194;-82
2022/01/22 02:10:21;;;;;;;3.53;0.70;;;25.00;99.90;;;;;;5033364;28;20186;-81
2022/01/22 02:24:03;;;;;;;3.47;0.80;;;24.70;99.90;;;;;;5025170;28;20244;-80
2022/01/22 02:26:36;;;;;;;1.95;0.50;;;24.90;99.90;;;;;;5032694;28;20201;-79
2022/01/22 02:29:07;;;;;;;1.88;0.50;;;24.90;99.90;;;;;;5031748;28;20190;-81
2022/01/22 02:31:41;;;;;;;3.80;0.75;;;24.80;99.90;;;;;;5037248;28;20193;-80
2022/01/22 02:34:17;;;;;;;3.03;0.55;;;24.80;99.90;;;;;;5031714;28;20693;-82
2022/01/22 02:37:00;;;;;;;4.95;0.80;;;24.80;99.90;;;;;;5030445;28;20715;-80
2022/01/22 02:39:38;;;;;;;4.25;0.80;;;25.00;99.90;;;;;;5031587;28;20582;-81
2022/01/22 02:42:09;;;;;;;3.92;0.70;;;24.90;99.90;;;;;;5036241;28;20634;-80
2022/01/22 02:44:46;;;;;;;5.25;0.80;;;24.80;99.90;;;;;;5030772;28;20190;-82
2022/01/22 02:47:18;;;;;;;4.28;0.77;;;24.60;99.90;;;;;;5032038;28;20205;-81
2022/01/22 02:49:48;;;;;;;5.25;0.90;;;24.60;99.90;;;;;;5033668;28;20197;-81
2022/01/22 02:52:21;;;;;;;7.13;0.80;;;24.80;99.90;;;;;;5037862;28;20191;-81
2022/01/22 02:54:52;;;;;;;6.20;0.80;;;24.90;99.90;;;;;;5038976;28;20200;-80
2022/01/22 02:57:22;;;;;;;3.30;0.70;;;25.00;99.90;;;;;;5046197;28;20209;-80
2022/01/22 02:59:53;;;;;;;3.30;0.60;;;25.00;99.90;;;;;;5045234;28;20605;-80
2022/01/22 03:02:24;;;;;;;7.07;0.90;;;25.10;99.90;;;;;;5039015;28;20186;-81
2022/01/22 03:04:54;;;;;;;3.50;0.70;;;25.00;99.90;;;;;;5034483;28;20664;-81
2022/01/22 03:07:27;;;;;;;4.70;1.05;;;25.00;99.90;;;;;;5036232;28;20198;-81
2022/01/22 03:10:01;;;;;;;2.92;0.70;;;24.90;99.90;;;;;;5035612;28;20194;-79
2022/01/22 03:13:06;;;;;;;3.95;0.88;;;24.80;99.90;;;;;;5032571;28;20265;-80
2022/01/22 03:16:02;;;;;;;5.63;0.80;;;24.70;99.90;;;;;;5030983;28;20209;-80
2022/01/22 03:18:44;;;;;;;5.10;0.80;;;24.60;99.90;;;;;;5036558;28;20573;-80
2022/01/22 03:21:30;;;;;;;1.95;0.60;;;24.70;99.90;;;;;;5040731;28;20191;-80
2022/01/22 03:29:38;;;;;;;5.30;0.60;;;24.60;99.90;;;;;;5034802;28;20198;-79
2022/01/22 03:32:13;;;;;;;3.20;0.70;;;24.50;99.90;;;;;;5037995;28;20209;-80
2022/01/22 03:34:54;;;;;;;4.85;0.57;;;24.50;99.90;;;;;;5040715;28;20623;-81
2022/01/22 03:37:26;;;;;;;4.70;0.77;;;24.30;99.90;;;;;;5037660;28;20222;-80
2022/01/22 03:39:58;;;;;;;2.83;0.68;;;24.60;99.90;;;;;;5033762;28;20245;-80
2022/01/22 03:42:29;;;;;;;5.95;0.75;;;24.60;99.90;;;;;;5039610;28;20245;-77
2022/01/22 03:45:00;;;;;;;2.28;0.70;;;24.60;99.90;;;;;;5034471;28;20635;-78
2022/01/22 03:47:30;;;;;;;3.72;0.80;;;24.50;99.90;;;;;;5035576;28;20205;-79
2022/01/22 03:50:01;;;;;;;6.40;0.70;;;24.60;99.90;;;;;;5036531;28;20190;-79
2022/01/22 03:52:32;;;;;;;3.95;0.63;;;24.60;99.90;;;;;;5032519;28;20689;-78
2022/01/22 03:55:05;;;;;;;2.72;0.60;;;24.50;99.90;;;;;;5037381;28;20202;-78
2022/01/22 03:57:36;;;;;;;2.80;0.90;;;24.40;99.90;;;;;;5037426;28;20214;-80
2022/01/22 04:00:10;;;;;;;4.18;0.60;;;24.40;99.90;;;;;;5033948;28;20186;-78
2022/01/22 04:05:24;;;;;;;4.57;0.80;;;24.30;99.90;;;;;;5034237;28;20202;-80
2022/01/22 04:08:09;;;;;;;3.40;0.77;;;24.40;99.90;;;;;;5041470;28;20185;-77
2022/01/22 04:10:42;;;;;;;5.28;0.80;;;24.60;99.90;;;;;;5033575;28;20332;-80
2022/01/22 04:13:15;;;;;;;8.05;0.93;;;24.60;99.90;;;;;;5038831;28;20198;-79
2022/01/22 04:15:47;;;;;;;4.55;0.88;;;24.80;99.90;;;;;;5036929;28;20213;-79
2022/01/22 04:26:52;;;;;;;4.72;0.70;;;24.60;99.90;;;;;;5026827;28;20281;-80
2022/01/22 04:29:23;;;;;;;1.88;0.60;;;24.60;99.90;;;;;;5033192;28;20541;-78
2022/01/22 04:31:54;;;;;;;2.72;0.65;;;24.60;99.90;;;;;;5034459;28;20191;-79
2022/01/22 04:34:25;;;;;;;6.72;0.82;;;24.70;99.90;;;;;;5033859;28;20206;-80
2022/01/22 04:36:55;;;;;;;7.53;1.10;;;24.70;99.90;;;;;;5034209;28;20577;-80
2022/01/22 04:39:27;;;;;;;3.58;0.98;;;24.70;99.90;;;;;;5034295;28;20190;-79
2022/01/22 04:42:01;;;;;;;5.07;0.70;;;24.60;99.90;;;;;;5033656;28;20229;-79
2022/01/22 04:44:37;;;;;;;4.28;0.70;;;24.50;99.90;;;;;;5034316;28;20191;-79
2022/01/22 04:47:24;;;;;;;3.47;0.90;;;24.50;99.90;;;;;;5034309;28;20197;-80
2022/01/22 04:54:57;;;;;;;4.85;0.80;;;24.70;99.90;;;;;;5034573;28;20194;-79
2022/01/22 04:55:32;;;;;;;5.40;1.05;;;24.60;99.90;;;;;;5033583;28;20244;-79
2022/01/22 04:58:05;;;;;;;5.78;1.13;;;24.60;99.90;;;;;;5031727;28;20202;-80
2022/01/22 05:00:37;;;;;;;3.85;1.10;;;24.60;99.90;;;;;;5034314;28;20265;-80
2022/01/22 05:03:08;;;;;;;5.03;0.80;;;24.70;99.90;;;;;;5030960;28;20194;-79
2022/01/22 05:05:39;;;;;;;4.28;0.70;;;24.90;99.90;;;;;;5033817;28;20186;-79
2022/01/22 05:08:09;;;;;;;3.30;0.70;;;24.90;99.90;;;;;;5041362;28;20194;-79
2022/01/22 05:10:40;;;;;;;7.82;1.17;;;24.70;99.90;;;;;;5032787;28;20671;-79
2022/01/22 05:13:13;;;;;;;4.53;0.95;;;24.80;99.90;;;;;;5040099;28;20199;-79
2022/01/22 05:15:43;;;;;;;4.57;0.88;;;24.80;99.90;;;;;;5033408;28;20191;-82
2022/01/22 05:18:15;;;;;;;5.22;0.73;;;24.60;99.90;;;;;;5038082;28;20186;-80
2022/01/22 05:20:51;;;;;;;5.03;0.80;;;24.50;99.90;;;;;;5034187;28;20236;-80
2022/01/22 05:23:24;;;;;;;6.75;1.08;;;24.40;99.90;;;;;;5034126;28;20225;-80
2022/01/22 05:25:58;;;;;;;6.05;0.90;;;24.20;99.90;;;;;;5034177;28;20221;-80
2022/01/22 05:29:01;;;;;;;5.45;1.08;;;24.10;99.90;;;;;;5035782;28;20189;-80
2022/01/22 05:31:41;;;;;;;5.25;0.90;;;24.00;99.90;;;;;;5033999;28;20248;-80
2022/01/22 05:37:11;;;;;;;4.90;0.80;;;23.70;99.90;;;;;;4969181;28;20228;-80
2022/01/22 05:39:42;;;;;;;3.88;0.73;;;23.70;99.90;;;;;;5025826;28;20213;-80
2022/01/22 05:42:13;;;;;;;7.65;1.10;;;23.80;99.90;;;;;;5037959;28;20198;-79
2022/01/22 05:44:45;;;;;;;3.50;0.68;;;23.90;99.90;;;;;;5033473;28;20652;-80
2022/01/22 05:47:21;;;;;;;3.47;0.77;;;24.00;99.90;;;;;;5035157;28;20711;-80
2022/01/22 05:49:52;;;;;;;5.25;0.88;;;24.00;99.90;;;;;;5033111;28;20186;-80
2022/01/22 05:52:29;;;;;;;5.10;0.90;;;24.00;99.90;;;;;;5039377;28;20603;-80
2022/01/22 05:55:26;;;;;;;5.93;0.98;;;24.10;99.90;;;;;;5040904;28;20190;-83
2022/01/22 06:00:48;;;;;;;5.95;0.90;;;24.20;99.90;;;;;;5032163;28;20201;-80
2022/01/22 06:03:19;;;;;;;5.25;1.42;;;24.00;99.90;;;;;;5033102;28;20276;-82
2022/01/22 06:05:50;;;;;;;5.82;1.10;;;23.80;99.90;;;;;;5033113;28;20216;-83
2022/01/22 06:08:21;;;;;;;4.95;0.93;;;23.70;99.90;;;;;;5036843;28;20212;-83
2022/01/22 06:10:55;;;;;;;3.58;0.75;;;23.60;99.90;;;;;;5040449;28;20213;-82
2022/01/22 06:13:31;;;;;;;6.15;0.80;;;23.60;99.90;;;;;;5034985;28;20555;-79
2022/01/22 06:16:04;;;;;;;4.68;0.65;;;23.60;99.90;;;;;;5034302;28;20193;-80
2022/01/22 06:18:34;;;;;;;3.85;0.88;;;23.50;99.90;;;;;;5035189;28;20198;-81
2022/01/22 06:21:06;;;;;;;5.72;0.95;;;23.50;99.90;;;;;;5032295;28;20692;-77
2022/01/22 06:23:37;;;;;;;3.55;1.08;;;23.50;99.90;;;;;;5033959;28;20187;-83
2022/01/22 06:26:08;;;;;;;3.95;0.77;;;23.40;99.90;;;;;;5033591;28;20197;-90
2022/01/22 06:28:40;;;;;;;3.63;0.98;;;23.40;99.90;;;;;;5037897;28;20186;-82
2022/01/22 06:31:13;;;;;;;4.95;1.05;;;23.50;99.90;;;;;;5033832;28;20597;-85
2022/01/22 06:33:43;;;;;;;5.03;0.68;;;23.60;99.90;;;;;;5032157;28;20595;-78
2022/01/22 06:36:14;;;;;;;3.72;0.73;;;23.60;99.90;;;;;;5032842;28;20240;-82
2022/01/22 06:38:45;;;;;;;5.07;1.00;;;23.60;99.90;;;;;;5038957;28;20197;-83
2022/01/22 06:44:05;;;;;;;5.25;0.88;;;23.70;99.90;;;;;;5034708;28;20196;-84
2022/01/22 06:46:38;;;;;;;7.10;0.88;;;23.80;99.90;;;;;;5031625;28;20190;-85
2022/01/22 06:49:09;;;;;;;5.75;0.70;;;23.80;99.90;;;;;;5035770;28;20190;-86
2022/01/22 06:51:39;;;;;;;4.55;0.90;;;23.70;99.90;;;;;;5032934;28;20192;-84
2022/01/22 06:54:14;;;;;;;4.00;0.80;;;23.60;99.90;;;;;;5026602;28;20191;-86
2022/01/22 06:56:45;;;;;;;3.40;1.08;;;23.40;99.90;;;;;;5038008;28;20313;-79
2022/01/22 06:59:16;;;;;;;7.15;0.88;;;23.40;99.90;;;;;;5033336;28;20190;-79
2022/01/22 07:01:54;;;;;;;7.57;0.75;;;23.40;99.90;;;;;;5031593;28;20186;-81
2022/01/22 07:04:25;;;;;;;3.85;0.90;;;23.60;99.90;;;;;;5039865;28;20208;-80
2022/01/22 07:06:56;;;;;;;4.75;1.10;;;23.60;99.90;;;;;;5040172;28;20185;-82
2022/01/22 07:09:29;;;;;;;3.90;0.85;;;23.60;99.90;;;;;;5033547;28;20202;-85
2022/01/22 07:12:01;;;;;;;5.35;1.08;;;23.60;99.90;;;;;;5041462;28;20183;-79
2022/01/22 07:14:32;;;;;;;53.13;35.55;;;23.50;99.90;;;;;;5035295;28;20260;-80
2022/01/22 07:17:05;;;;;;;9.63;2.40;;;23.40;99.90;;;;;;5031364;28;20280;-84
2022/01/22 07:19:39;;;;;;;6.22;1.95;;;23.30;99.90;;;;;;5032377;28;20182;-76
2022/01/22 07:22:31;;;;;;;7.20;1.70;;;23.30;99.90;;;;;;5037212;28;20240;-77
2022/01/22 07:25:02;;;;;;;7.93;1.63;;;23.30;99.90;;;;;;5029713;28;20218;-76
2022/01/22 07:27:35;;;;;;;5.88;1.40;;;23.40;99.90;;;;;;5033989;28;20190;-77
2022/01/22 07:30:07;;;;;;;8.38;1.80;;;23.30;99.90;;;;;;5032035;28;20185;-77
2022/01/22 07:32:42;;;;;;;4.13;1.17;;;23.30;99.90;;;;;;5038153;28;20565;-78
2022/01/22 07:35:14;;;;;;;7.35;1.50;;;23.20;99.90;;;;;;5032910;28;20274;-76
2022/01/22 07:37:45;;;;;;;7.10;1.48;;;23.20;99.90;;;;;;5031064;28;20218;-76
2022/01/22 07:40:16;;;;;;;4.75;1.20;;;23.10;99.90;;;;;;5035468;28;20226;-77
2022/01/22 07:42:47;;;;;;;7.03;1.30;;;23.00;99.90;;;;;;5029004;28;20206;-75
2022/01/22 07:45:18;;;;;;;8.13;1.17;;;23.00;99.90;;;;;;5039044;28;20190;-79
2022/01/22 07:47:50;;;;;;;6.85;1.52;;;23.00;99.90;;;;;;5029598;28;20558;-77
2022/01/22 07:50:21;;;;;;;5.07;1.20;;;23.00;99.90;;;;;;5036115;28;20638;-79
2022/01/22 07:52:52;;;;;;;4.93;1.25;;;23.10;99.90;;;;;;5035322;28;20194;-85
2022/01/22 07:55:22;;;;;;;7.82;1.20;;;23.20;99.90;;;;;;5035528;28;20199;-79
2022/01/22 07:57:53;;;;;;;7.80;1.40;;;23.10;99.90;;;;;;5035339;28;20222;-78
2022/01/22 08:00:24;;;;;;;7.10;1.23;;;23.00;99.90;;;;;;5032026;28;20198;-83
2022/01/22 08:02:56;;;;;;;7.75;1.50;;;23.00;99.90;;;;;;5036786;28;20233;-79
2022/01/22 08:05:29;;;;;;;5.13;1.23;;;23.00;99.90;;;;;;5037744;28;20186;-82
2022/01/22 08:08:00;;;;;;;8.40;1.40;;;22.90;99.90;;;;;;5035776;28;20202;-79
2022/01/22 08:10:31;;;;;;;6.82;1.30;;;23.00;99.90;;;;;;5036287;28;20233;-80
2022/01/22 08:13:02;;;;;;;7.18;1.52;;;23.00;99.90;;;;;;5035759;28;20182;-80
2022/01/22 08:15:33;;;;;;;6.30;1.10;;;22.90;99.90;;;;;;5034225;28;20190;-80
2022/01/22 08:18:07;;;;;;;5.00;1.17;;;22.80;99.90;;;;;;5034278;28;20237;-85
2022/01/22 08:20:41;;;;;;;6.55;1.27;;;22.80;99.90;;;;;;5031054;28;20201;-87
2022/01/22 08:23:12;;;;;;;5.85;1.17;;;22.70;99.90;;;;;;5042194;28;20190;-86
2022/01/22 08:25:46;;;;;;;5.93;1.40;;;22.60;99.90;;;;;;5035419;28;20222;-84
2022/01/22 08:31:17;;;;;;;5.57;1.30;;;22.50;99.90;;;;;;5038755;28;20575;-83
2022/01/22 08:36:41;;;;;;;5.50;1.35;;;22.30;99.90;;;;;;5035734;28;20212;-80
2022/01/22 08:39:12;;;;;;;5.95;1.17;;;22.20;99.90;;;;;;5039653;28;20654;-83
2022/01/22 08:41:42;;;;;;;10.05;1.30;;;22.20;99.90;;;;;;5027611;28;20189;-84
2022/01/22 08:44:13;;;;;;;9.88;1.60;;;22.10;99.90;;;;;;5038820;28;20186;-86
2022/01/22 08:46:44;;;;;;;7.30;1.50;;;22.10;99.90;;;;;;5037668;28;20194;-87
2022/01/22 08:49:17;;;;;;;5.32;1.30;;;22.00;99.90;;;;;;5036773;28;20194;-80
2022/01/22 08:51:48;;;;;;;8.07;1.30;;;21.90;99.90;;;;;;5034444;28;20186;-80
2022/01/22 08:54:19;;;;;;;4.93;1.17;;;21.90;99.90;;;;;;5034259;28;20558;-84
2022/01/22 08:56:50;;;;;;;5.22;1.38;;;21.90;99.90;;;;;;5033502;28;20195;-79
2022/01/22 08:59:20;;;;;;;5.75;1.40;;;21.90;99.90;;;;;;5033932;28;20191;-79
2022/01/22 09:01:51;;;;;;;5.88;1.42;;;21.80;99.90;;;;;;5033412;28;20190;-81
2022/01/22 09:04:24;;;;;;;8.32;1.50;;;21.80;99.90;;;;;;5033790;28;20197;-79
2022/01/22 09:06:54;;;;;;;9.65;1.58;;;21.80;99.90;;;;;;5033862;28;20182;-81
2022/01/22 09:09:25;;;;;;;5.45;1.40;;;21.80;99.90;;;;;;5033531;28;20658;-80
2022/01/22 09:11:57;;;;;;;7.75;1.50;;;21.80;99.90;;;;;;5033132;28;20194;-80
2022/01/22 09:14:28;;;;;;;10.57;2.00;;;21.70;99.90;;;;;;5034677;28;20194;-80
2022/01/22 09:16:59;;;;;;;6.70;1.50;;;21.80;99.90;;;;;;5031956;28;20594;-81
2022/01/22 09:19:34;;;;;;;5.38;1.52;;;21.70;99.90;;;;;;5037473;28;20244;-80
2022/01/22 09:22:07;;;;;;;8.15;1.83;;;21.70;99.90;;;;;;5031934;28;20190;-81
2022/01/22 09:24:38;;;;;;;4.93;1.80;;;21.70;99.90;;;;;;5036457;28;20225;-80
2022/01/22 09:27:08;;;;;;;11.05;1.73;;;21.70;99.90;;;;;;5033566;28;20190;-81
2022/01/22 09:29:39;;;;;;;5.65;1.73;;;21.70;99.90;;;;;;5034178;28;20222;-81
2022/01/22 09:32:10;;;;;;;6.47;1.65;;;21.70;99.90;;;;;;5035807;28;20240;-82
2022/01/22 09:34:42;;;;;;;4.00;1.40;;;21.70;99.90;;;;;;5033640;28;20187;-81
2022/01/22 09:37:13;;;;;;;5.30;1.20;;;21.70;99.90;;;;;;5032842;28;20197;-83
2022/01/22 09:39:44;;;;;;;7.50;1.50;;;21.70;99.90;;;;;;5035996;28;20218;-82
2022/01/22 09:42:15;;;;;;;8.73;1.58;;;21.70;99.90;;;;;;5036069;28;20205;-82
2022/01/22 09:44:46;;;;;;;10.05;1.60;;;21.70;99.90;;;;;;5031055;28;20182;-81
2022/01/22 09:47:21;;;;;;;5.55;1.50;;;21.70;99.90;;;;;;5034429;28;20198;-80
2022/01/22 09:49:54;;;;;;;5.20;1.27;;;21.70;99.90;;;;;;5035689;28;20252;-81
2022/01/22 09:52:25;;;;;;;7.75;1.50;;;21.70;99.90;;;;;;5036051;28;20198;-81
2022/01/22 09:54:56;;;;;;;7.07;1.50;;;21.70;99.90;;;;;;5038795;28;20197;-81
2022/01/22 09:57:30;;;;;;;5.07;1.20;;;21.60;99.90;;;;;;5031917;28;20218;-81
2022/01/22 10:00:00;;;;;;;8.93;1.67;;;21.60;99.90;;;;;;5033070;28;20639;-82
2022/01/22 10:02:31;;;;;;;5.18;1.20;;;21.60;99.90;;;;;;5033317;28;20657;-81
2022/01/22 10:05:04;;;;;;;7.13;1.50;;;21.70;99.90;;;;;;5033255;28;20252;-81
2022/01/22 10:07:34;;;;;;;5.55;1.20;;;21.70;99.90;;;;;;5032823;28;20646;-81
2022/01/22 10:10:08;;;;;;;4.15;1.30;;;21.70;99.90;;;;;;5032665;28;20197;-81
2022/01/22 10:12:47;;;;;;;7.60;1.50;;;21.60;99.90;;;;;;5040930;28;20206;-81
2022/01/22 10:15:19;;;;;;;6.13;1.17;;;21.60;99.90;;;;;;5034891;28;20194;-79
2022/01/22 10:17:54;;;;;;;6.57;1.30;;;21.60;99.90;;;;;;5024603;28;20581;-80
2022/01/22 10:20:37;;;;;;;6.13;1.50;;;21.60;99.90;;;;;;5038974;28;20200;-80
2022/01/22 10:23:18;;;;;;;7.75;1.30;;;21.50;99.90;;;;;;5033136;28;20196;-80
2022/01/22 10:25:54;;;;;;;6.18;1.45;;;21.50;99.90;;;;;;5032117;28;20271;-82
2022/01/22 10:28:27;;;;;;;9.10;1.55;;;21.50;99.90;;;;;;5034127;28;20189;-81
2022/01/22 10:31:00;;;;;;;5.93;1.23;;;21.50;99.90;;;;;;5038330;28;20190;-81
2022/01/22 10:33:33;;;;;;;6.47;1.35;;;21.50;99.90;;;;;;5036334;28;20215;-80
2022/01/22 10:36:17;;;;;;;4.50;1.35;;;21.50;99.90;;;;;;5032645;28;20662;-81
2022/01/22 10:38:49;;;;;;;6.20;1.30;;;21.50;99.90;;;;;;5030458;28;20397;-81
2022/01/22 10:41:33;;;;;;;6.65;1.33;;;21.50;99.90;;;;;;5031975;28;20228;-81
2022/01/22 10:44:05;;;;;;;7.28;1.33;;;21.50;99.90;;;;;;5025678;28;20550;-82
2022/01/22 10:46:49;;;;;;;3.63;1.20;;;21.50;99.90;;;;;;5029381;28;20198;-81
2022/01/22 10:49:21;;;;;;;5.78;1.10;;;21.50;99.90;;;;;;5038845;28;20202;-82
2022/01/22 10:51:56;;;;;;;6.05;1.10;;;21.50;99.90;;;;;;5035936;28;20190;-81
2022/01/22 10:54:29;;;;;;;4.13;1.25;;;21.50;99.90;;;;;;5042289;28;20189;-82
2022/01/22 10:57:14;;;;;;;7.05;1.05;;;21.50;99.90;;;;;;5039224;28;20217;-81
2022/01/22 10:59:49;;;;;;;7.60;1.13;;;21.50;99.90;;;;;;5030570;28;20221;-81
2022/01/22 11:02:31;;;;;;;4.57;1.15;;;21.40;99.90;;;;;;5032845;28;20201;-81
2022/01/22 11:05:02;;;;;;;5.82;1.02;;;21.40;99.90;;;;;;5034588;28;20244;-82
2022/01/22 11:07:35;;;;;;;2.35;1.00;;;21.40;99.90;;;;;;5034783;28;20186;-81
2022/01/22 11:10:09;;;;;;;5.82;1.27;;;21.40;99.90;;;;;;5034463;28;20301;-81
2022/01/22 11:12:40;;;;;;;5.03;1.10;;;21.40;99.90;;;;;;5042148;28;20190;-82
2022/01/22 11:15:20;;;;;;;4.68;1.20;;;21.40;99.90;;;;;;5038233;28;20642;-81
2022/01/22 11:17:52;;;;;;;3.63;0.98;;;21.40;99.90;;;;;;5042466;28;20570;-80
2022/01/22 11:20:23;;;;;;;4.78;0.93;;;21.40;99.90;;;;;;5037028;28;20186;-81
2022/01/22 11:22:57;;;;;;;3.75;0.93;;;21.30;99.90;;;;;;5036193;28;20603;-82
2022/01/22 11:25:29;;;;;;;4.72;1.20;;;21.40;99.90;;;;;;5036537;28;20232;-81
2022/01/22 11:28:00;;;;;;;5.53;1.33;;;21.30;99.90;;;;;;5038991;28;20194;-81
2022/01/22 11:30:32;;;;;;;5.70;1.00;;;21.40;99.90;;;;;;5036407;28;20186;-82
2022/01/22 11:33:07;;;;;;;4.88;1.10;;;21.40;99.90;;;;;;5035301;28;20205;-82
2022/01/22 11:35:51;;;;;;;3.40;1.08;;;21.40;99.90;;;;;;5043680;28;20185;-81
2022/01/22 11:38:30;;;;;;;5.47;1.10;;;21.40;99.90;;;;;;5035683;28;20206;-82
2022/01/22 11:41:08;;;;;;;4.03;1.00;;;21.50;99.90;;;;;;5035108;28;20686;-81
2022/01/22 11:44:10;;;;;;;5.63;1.42;;;21.40;99.90;;;;;;5035699;28;20214;-81
2022/01/22 11:46:51;;;;;;;4.03;1.10;;;21.40;99.90;;;;;;4993682;28;20225;-82
2022/01/22 11:49:25;;;;;;;5.18;1.00;;;21.40;99.90;;;;;;5030296;28;20202;-82
2022/01/22 11:51:57;;;;;;;5.90;1.05;;;21.40;99.90;;;;;;5035055;28;20194;-82
2022/01/22 11:54:29;;;;;;;6.47;1.40;;;21.40;99.90;;;;;;5035448;28;20617;-81
2022/01/22 11:57:16;;;;;;;5.45;1.00;;;21.40;99.90;;;;;;5035294;28;20191;-82
2022/01/22 11:59:47;;;;;;;3.42;0.88;;;21.40;99.90;;;;;;5039981;28;20760;-82
2022/01/22 12:02:18;;;;;;;3.72;1.10;;;21.40;99.90;;;;;;5029491;28;20203;-82
2022/01/22 12:05:02;;;;;;;3.97;1.00;;;21.40;99.90;;;;;;5038513;28;20190;-82
2022/01/22 12:07:35;;;;;;;4.95;1.00;;;21.40;99.90;;;;;;5035928;28;20190;-82
2022/01/22 12:16:51;;;;;;;5.95;1.20;;;21.40;99.90;;;;;;5036047;28;21002;-82
2022/01/22 12:20:02;;;;;;;7.50;1.10;;;21.40;99.90;;;;;;5037521;28;20643;-81
2022/01/22 12:22:34;;;;;;;5.20;1.02;;;21.40;99.90;;;;;;5034034;28;20186;-81
2022/01/22 12:25:06;;;;;;;4.30;1.08;;;21.40;99.90;;;;;;5036143;28;20225;-81
2022/01/22 12:27:49;;;;;;;7.20;1.15;;;21.40;99.90;;;;;;5035798;28;20197;-81
2022/01/22 12:30:35;;;;;;;6.47;1.40;;;21.40;99.90;;;;;;5036880;28;20194;-82
2022/01/22 12:33:10;;;;;;;4.97;1.20;;;21.50;99.90;;;;;;5039012;28;20196;-81
2022/01/22 12:35:42;;;;;;;8.75;1.30;;;21.40;99.90;;;;;;5042237;28;20610;-81
2022/01/22 12:38:24;;;;;;;3.97;1.30;;;21.50;99.90;;;;;;5044623;28;20696;-81
2022/01/22 12:40:59;;;;;;;3.63;1.10;;;21.40;99.90;;;;;;5034110;28;20300;-82
2022/01/22 12:43:46;;;;;;;3.63;0.80;;;21.40;99.90;;;;;;5034385;28;20248;-82
2022/01/22 12:46:17;;;;;;;5.18;0.80;;;21.40;99.90;;;;;;5035132;28;20202;-81
2022/01/22 12:48:53;;;;;;;3.67;0.90;;;21.40;99.90;;;;;;5033954;28;20202;-82
2022/01/22 12:51:28;;;;;;;4.82;0.90;;;21.40;99.90;;;;;;5034513;28;20190;-82
2022/01/22 12:53:59;;;;;;;3.60;0.77;;;21.30;99.90;;;;;;5035714;28;20190;-82
2022/01/22 12:56:51;;;;;;;2.40;0.80;;;21.30;99.90;;;;;;5039486;28;20191;-82
2022/01/22 12:59:26;;;;;;;3.70;0.90;;;21.30;99.90;;;;;;5030621;28;20226;-82
2022/01/22 13:01:57;;;;;;;5.28;1.10;;;21.30;99.90;;;;;;5034710;28;20194;-82
2022/01/22 13:04:28;;;;;;;5.55;0.88;;;21.30;99.90;;;;;;5034045;28;20365;-82
2022/01/22 13:07:01;;;;;;;4.40;0.93;;;21.20;99.90;;;;;;5035484;28;20908;-81
2022/01/22 13:09:48;;;;;;;3.28;0.90;;;21.20;99.90;;;;;;5039306;28;20186;-82
2022/01/22 13:12:19;;;;;;;4.57;1.10;;;21.20;99.90;;;;;;5035022;28;20190;-82
2022/01/22 13:14:57;;;;;;;3.40;0.90;;;21.10;99.90;;;;;;5034802;28;20191;-83
2022/01/22 13:17:35;;;;;;;3.45;0.90;;;21.10;99.90;;;;;;5040656;28;20198;-83
2022/01/22 13:20:07;;;;;;;5.25;1.35;;;21.10;99.90;;;;;;5034584;28;20301;-83
2022/01/22 13:22:39;;;;;;;5.10;1.10;;;21.10;99.90;;;;;;5033733;28;20202;-82
2022/01/22 13:25:13;;;;;;;4.80;1.55;;;21.00;99.90;;;;;;5035933;28;20586;-83
2022/01/22 13:27:45;;;;;;;3.20;1.23;;;21.00;99.90;;;;;;5037626;28;20289;-83
2022/01/22 13:30:18;;;;;;;3.42;1.30;;;21.00;99.90;;;;;;5025394;28;20613;-82
2022/01/22 13:32:54;;;;;;;4.20;1.25;;;21.00;99.90;;;;;;5036142;28;20190;-81
2022/01/22 13:35:43;;;;;;;3.22;1.00;;;21.00;99.90;;;;;;5026164;28;20186;-81
2022/01/22 13:49:31;;;;;;;4.78;0.80;;;21.00;99.90;;;;;;5026572;28;20260;-82
2022/01/22 13:52:05;;;;;;;3.55;0.75;;;21.00;99.90;;;;;;5037130;28;20190;-82
2022/01/22 13:54:39;;;;;;;4.97;1.15;;;21.00;99.90;;;;;;5026715;28;20186;-82
2022/01/22 13:57:11;;;;;;;4.10;0.80;;;21.00;99.90;;;;;;5035011;28;20638;-81
2022/01/22 13:59:43;;;;;;;3.28;0.85;;;20.90;99.90;;;;;;5033422;28;20210;-81
2022/01/22 14:02:33;;;;;;;4.57;0.70;;;21.00;99.90;;;;;;5032471;28;20662;-81
2022/01/22 14:05:07;;;;;;;3.40;0.65;;;20.90;99.90;;;;;;5033159;28;20295;-81
2022/01/22 14:07:41;;;;;;;4.97;1.10;;;21.00;99.90;;;;;;5033439;28;20221;-82
2022/01/22 14:10:16;;;;;;;3.95;0.80;;;21.00;99.90;;;;;;5032831;28;20654;-81
2022/01/22 14:12:56;;;;;;;3.50;0.80;;;21.00;99.90;;;;;;5037273;28;20196;-81
2022/01/22 14:15:35;;;;;;;1.92;0.63;;;20.90;99.90;;;;;;5033125;28;20625;-82
2022/01/22 14:18:13;;;;;;;2.83;0.70;;;20.90;99.90;;;;;;5031116;28;20216;-82
2022/01/22 14:20:46;;;;;;;5.38;1.00;;;20.90;99.90;;;;;;5024982;28;20596;-82
2022/01/22 14:23:18;;;;;;;2.70;0.50;;;20.80;99.90;;;;;;5032672;28;20202;-81
2022/01/22 14:26:01;;;;;;;2.60;0.70;;;20.90;99.90;;;;;;5033330;28;20839;-82
2022/01/22 14:28:43;;;;;;;3.88;0.68;;;20.90;99.90;;;;;;5032732;28;20244;-81
2022/01/22 14:31:31;;;;;;;2.22;0.70;;;20.80;99.90;;;;;;5034735;28;20704;-81
2022/01/22 14:34:05;;;;;;;3.17;0.60;;;20.80;99.90;;;;;;5027030;28;20194;-83
2022/01/22 14:36:40;;;;;;;3.58;0.70;;;20.70;99.90;;;;;;5032375;28;20251;-82
2022/01/22 14:39:26;;;;;;;2.33;0.63;;;20.70;99.90;;;;;;5032007;28;20217;-82
2022/01/22 14:44:46;;;;;;;3.17;0.70;;;20.70;99.90;;;;;;5033718;28;21639;-82